createdAt,value
2023-01-17T00:02:02.925Z,25.85
2023-01-17T00:04:49.005Z,27.00
2023-01-17T00:07:36.777Z,29.80
2023-01-17T00:10:13.379Z,24.25
2023-01-17T00:12:49.801Z,31.52
2023-01-17T00:15:20.173Z,28.70
2023-01-17T00:17:48.832Z,26.85
2023-01-17T00:20:36.463Z,26.35
2023-01-17T00:23:27.811Z,29.90
2023-01-17T00:26:06.279Z,29.52
2023-01-17T00:28:41.247Z,27.30
2023-01-17T00:31:13.505Z,29.92
2023-01-17T00:33:40.930Z,28.75
2023-01-17T00:36:08.952Z,22.73
2023-01-17T00:38:38.695Z,22.88
2023-01-17T00:41:11.885Z,36.92
2023-01-17T00:43:57.416Z,27.23
2023-01-17T00:49:28.747Z,26.67
2023-01-17T00:54:59.896Z,22.48
2023-01-17T00:57:45.441Z,22.48
2023-01-17T01:03:17.086Z,23.40
2023-01-17T01:06:02.757Z,28.30
2023-01-17T01:08:48.848Z,21.90
2023-01-17T01:11:37.511Z,21.92
2023-01-17T01:14:24.973Z,27.90
2023-01-17T01:17:10.956Z,27.63
2023-01-17T01:19:56.769Z,33.80
2023-01-17T01:22:42.569Z,27.27
2023-01-17T01:25:28.440Z,23.27
2023-01-17T01:28:25.649Z,26.23
2023-01-17T01:31:11.904Z,27.20
2023-01-17T01:33:39.280Z,29.52
2023-01-17T01:36:08.441Z,25.08
2023-01-17T01:38:35.605Z,31.55
2023-01-17T01:41:03.520Z,31.55
2023-01-17T01:43:52.287Z,24.30
2023-01-17T01:46:30.430Z,26.77
2023-01-17T01:49:16.988Z,26.38
2023-01-17T01:51:50.360Z,31.15
2023-01-17T01:54:25.188Z,24.77
2023-01-17T01:56:57.441Z,26.52
2023-01-17T01:59:25.503Z,27.35
2023-01-17T02:01:56.111Z,33.03
2023-01-17T02:04:25.171Z,30.77
2023-01-17T02:06:59.210Z,23.63
2023-01-17T02:09:27.443Z,30.33
2023-01-17T02:11:55.142Z,28.30
2023-01-17T02:14:22.957Z,28.95
2023-01-17T02:17:28.325Z,30.02
2023-01-17T02:20:16.212Z,31.73
2023-01-17T02:22:43.467Z,30.83
2023-01-17T02:25:10.526Z,30.33
2023-01-17T02:27:54.436Z,23.42
2023-01-17T02:30:32.501Z,27.55
2023-01-17T02:33:23.503Z,26.65
2023-01-17T02:36:10.385Z,31.33
2023-01-17T02:38:57.779Z,29.45
2023-01-17T02:41:33.661Z,27.48
2023-01-17T02:44:04.483Z,26.83
2023-01-17T02:46:31.574Z,28.13
2023-01-17T02:49:00.644Z,29.40
2023-01-17T02:51:49.167Z,27.48
2023-01-17T02:54:35.416Z,25.83
2023-01-17T02:57:48.937Z,24.50
2023-01-17T03:00:25.513Z,27.33
2023-01-17T03:03:10.627Z,28.02
2023-01-17T03:05:48.745Z,26.92
2023-01-17T03:08:16.888Z,27.55
2023-01-17T03:10:44.904Z,25.95
2023-01-17T03:13:12.042Z,22.88
2023-01-17T03:15:40.421Z,26.95
2023-01-17T03:18:16.223Z,23.50
2023-01-17T03:20:43.371Z,29.58
2023-01-17T03:23:10.729Z,25.92
2023-01-17T03:25:37.779Z,31.23
2023-01-17T03:28:05.278Z,28.50
2023-01-17T03:30:32.402Z,25.45
2023-01-17T03:33:00.400Z,26.65
2023-01-17T03:35:28.656Z,26.23
2023-01-17T03:37:56.694Z,27.73
2023-01-17T03:40:24.007Z,29.23
2023-01-17T03:42:51.262Z,24.90
2023-01-17T03:45:21.367Z,28.77
2023-01-17T03:47:58.927Z,27.27
2023-01-17T03:50:26.468Z,22.65
2023-01-17T03:52:56.006Z,25.33
2023-01-17T03:55:27.380Z,25.98
2023-01-17T03:57:54.813Z,27.95
2023-01-17T04:00:44.550Z,26.65
2023-01-17T04:03:11.761Z,21.30
2023-01-17T04:05:38.904Z,28.85
2023-01-17T04:08:07.467Z,32.08
2023-01-17T04:10:35.611Z,24.02
2023-01-17T04:13:02.708Z,25.70
2023-01-17T04:15:36.511Z,26.90
2023-01-17T04:20:39.716Z,22.42
2023-01-17T04:23:08.194Z,23.77
2023-01-17T04:25:36.169Z,25.42
2023-01-17T04:28:04.459Z,29.90
2023-01-17T04:30:32.823Z,28.13
2023-01-17T04:33:00.240Z,28.92
2023-01-17T04:35:30.285Z,22.10
2023-01-17T04:37:57.688Z,26.40
2023-01-17T04:40:25.326Z,26.00
2023-01-17T04:42:55.443Z,24.92
2023-01-17T04:45:24.001Z,26.88
2023-01-17T04:47:52.351Z,23.75
2023-01-17T04:50:24.819Z,31.50
2023-01-17T04:52:52.433Z,24.73
2023-01-17T04:55:19.554Z,24.80
2023-01-17T04:57:48.404Z,27.90
2023-01-17T05:00:16.134Z,26.42
2023-01-17T05:02:43.478Z,25.30
2023-01-17T05:05:13.452Z,23.83
2023-01-17T05:07:40.862Z,27.63
2023-01-17T05:10:08.661Z,28.00
2023-01-17T05:12:35.788Z,31.73
2023-01-17T05:15:03.334Z,28.48
2023-01-17T05:17:31.711Z,29.23
2023-01-17T05:20:00.265Z,24.42
2023-01-17T05:22:27.624Z,25.50
2023-01-17T05:24:54.742Z,25.45
2023-01-17T05:27:22.102Z,26.30
2023-01-17T05:29:49.229Z,25.85
2023-01-17T05:32:16.630Z,33.45
2023-01-17T05:34:45.873Z,24.13
2023-01-17T05:37:13.302Z,29.25
2023-01-17T05:39:40.480Z,24.50
2023-01-17T05:42:07.901Z,26.05
2023-01-17T05:44:35.174Z,27.77
2023-01-17T05:47:02.683Z,27.35
2023-01-17T05:49:29.848Z,30.15
2023-01-17T05:51:58.250Z,27.38
2023-01-17T05:54:26.065Z,31.23
2023-01-17T05:56:53.646Z,25.40
2023-01-17T05:59:35.955Z,30.10
2023-01-17T06:02:04.065Z,25.67
2023-01-17T06:04:31.254Z,25.58
2023-01-17T06:06:58.552Z,31.27
2023-01-17T06:09:26.030Z,25.20
2023-01-17T06:11:54.354Z,28.27
2023-01-17T06:14:24.279Z,27.75
2023-01-17T06:16:51.395Z,24.85
2023-01-17T06:19:18.805Z,24.88
2023-01-17T06:21:46.114Z,24.55
2023-01-17T06:24:14.236Z,24.42
2023-01-17T06:26:44.238Z,30.27
2023-01-17T06:29:12.253Z,24.58
2023-01-17T06:31:39.600Z,23.35
2023-01-17T06:34:06.813Z,28.33
2023-01-17T06:36:34.646Z,23.60
2023-01-17T06:39:01.867Z,23.45
2023-01-17T06:41:29.318Z,23.48
2023-01-17T06:43:57.069Z,28.08
2023-01-17T06:46:26.007Z,31.52
2023-01-17T06:48:53.382Z,25.40
2023-01-17T06:51:21.190Z,28.50
2023-01-17T06:53:49.733Z,23.45
2023-01-17T06:56:17.402Z,21.83
2023-01-17T06:58:47.492Z,25.90
2023-01-17T07:01:15.294Z,26.75
2023-01-17T07:03:42.952Z,27.02
2023-01-17T07:06:10.389Z,26.65
2023-01-17T07:08:38.204Z,21.88
2023-01-17T07:11:08.987Z,26.10
2023-01-17T07:13:38.265Z,24.13
2023-01-17T07:16:07.623Z,25.42
2023-01-17T07:18:36.035Z,22.52
2023-01-17T07:21:03.347Z,24.58
2023-01-17T07:23:31.177Z,24.05
2023-01-17T07:26:00.493Z,23.17
2023-01-17T07:28:28.756Z,22.33
2023-01-17T07:30:56.536Z,29.80
2023-01-17T07:33:24.287Z,21.63
2023-01-17T07:35:51.656Z,26.08
2023-01-17T07:38:20.351Z,24.63
2023-01-17T07:40:47.584Z,24.10
2023-01-17T07:43:15.260Z,25.70
2023-01-17T07:45:43.939Z,26.33
2023-01-17T07:48:12.394Z,27.17
2023-01-17T07:50:39.843Z,24.58
2023-01-17T07:53:06.940Z,23.98
2023-01-17T07:55:34.095Z,24.65
2023-01-17T07:58:03.077Z,22.10
2023-01-17T08:00:31.187Z,25.30
2023-01-17T08:02:59.839Z,23.35
2023-01-17T08:05:30.968Z,25.90
2023-01-17T08:07:58.099Z,22.48
2023-01-17T08:10:25.347Z,29.08
2023-01-17T08:12:52.632Z,21.52
2023-01-17T08:15:19.734Z,27.20
2023-01-17T08:17:49.322Z,20.90
2023-01-17T08:20:18.101Z,23.58
2023-01-17T08:22:46.322Z,27.50
2023-01-17T08:25:13.789Z,23.77
2023-01-17T08:27:42.394Z,22.80
2023-01-17T08:30:09.987Z,25.27
2023-01-17T08:32:40.834Z,24.55
2023-01-17T08:35:11.960Z,20.30
2023-01-17T08:37:39.660Z,22.95
2023-01-17T08:40:08.852Z,23.55
2023-01-17T08:42:39.612Z,23.80
2023-01-17T08:45:08.867Z,21.98
2023-01-17T08:47:38.136Z,20.40
2023-01-17T08:50:07.165Z,19.60
2023-01-17T08:52:34.941Z,19.77
2023-01-17T08:55:02.682Z,20.45
2023-01-17T08:57:32.162Z,19.35
2023-01-17T08:59:59.467Z,22.00
2023-01-17T09:02:27.105Z,20.05
2023-01-17T09:04:54.573Z,22.77
2023-01-17T09:07:22.012Z,19.55
2023-01-17T09:09:49.373Z,21.40
2023-01-17T09:12:17.053Z,19.90
2023-01-17T09:14:44.406Z,23.73
2023-01-17T09:17:14.511Z,24.17
2023-01-17T09:19:47.868Z,22.13
2023-01-17T09:22:15.754Z,22.42
2023-01-17T09:24:43.075Z,17.08
2023-01-17T09:27:11.102Z,22.20
2023-01-17T09:29:38.287Z,18.75
2023-01-17T09:32:05.966Z,23.38
2023-01-17T09:34:39.584Z,23.88
2023-01-17T09:37:08.120Z,20.87
2023-01-17T09:39:35.900Z,24.63
2023-01-17T09:42:11.921Z,22.25
2023-01-17T09:44:46.835Z,19.25
2023-01-17T09:47:32.402Z,20.50
2023-01-17T09:50:09.048Z,19.58
2023-01-17T09:52:36.141Z,20.35
2023-01-17T09:55:07.969Z,22.88
2023-01-17T09:58:00.748Z,16.58
2023-01-17T10:00:51.064Z,18.52
2023-01-17T10:03:28.382Z,17.92
2023-01-17T10:06:04.159Z,21.33
2023-01-17T10:08:57.639Z,18.35
2023-01-17T10:11:49.375Z,19.25
2023-01-17T10:14:37.993Z,18.10
2023-01-17T10:17:20.973Z,21.50
2023-01-17T10:19:52.500Z,21.75
2023-01-17T10:22:49.506Z,21.95
2023-01-17T10:25:28.390Z,22.33
2023-01-17T10:28:00.630Z,21.98
2023-01-17T10:30:39.284Z,19.90
2023-01-17T10:33:32.577Z,18.75
2023-01-17T10:36:08.438Z,20.90
2023-01-17T10:38:42.363Z,21.85
2023-01-17T10:41:33.363Z,19.85
2023-01-17T10:44:12.290Z,19.02
2023-01-17T10:46:52.653Z,17.10
2023-01-17T10:49:24.957Z,20.15
2023-01-17T10:52:09.056Z,17.02
2023-01-17T10:54:55.519Z,17.33
2023-01-17T10:57:25.457Z,16.10
2023-01-17T10:59:56.056Z,20.13
2023-01-17T11:02:32.294Z,15.70
2023-01-17T11:05:11.591Z,16.52
2023-01-17T11:07:40.185Z,18.73
2023-01-17T11:10:37.328Z,16.40
2023-01-17T11:13:08.127Z,13.70
2023-01-17T11:15:40.018Z,18.38
2023-01-17T11:18:16.657Z,20.85
2023-01-17T11:20:44.342Z,15.20
2023-01-17T11:23:22.057Z,15.75
2023-01-17T11:25:52.854Z,15.73
2023-01-17T11:28:21.942Z,15.30
2023-01-17T11:30:58.710Z,17.70
2023-01-17T11:33:46.265Z,18.67
2023-01-17T11:36:30.864Z,18.02
2023-01-17T11:41:52.798Z,21.08
2023-01-17T11:44:26.489Z,17.77
2023-01-17T11:47:23.320Z,16.48
2023-01-17T11:49:51.784Z,18.95
2023-01-17T11:52:26.085Z,15.52
2023-01-17T11:54:55.454Z,18.50
2023-01-17T11:57:33.698Z,18.20
2023-01-17T12:00:04.223Z,15.60
2023-01-17T12:03:08.898Z,15.32
2023-01-17T12:06:00.505Z,15.32
2023-01-17T12:08:53.424Z,19.67
2023-01-17T12:12:14.752Z,14.93
2023-01-17T12:15:08.443Z,22.23
2023-01-17T12:17:59.379Z,15.68
2023-01-17T12:20:55.518Z,19.85
2023-01-17T12:23:25.581Z,20.27
2023-01-17T12:26:07.886Z,19.92
2023-01-17T12:28:50.433Z,19.63
2023-01-17T12:31:33.675Z,16.88
2023-01-17T12:34:05.419Z,17.33
2023-01-17T12:36:49.651Z,17.75
2023-01-17T12:39:23.001Z,19.38
2023-01-17T12:41:50.941Z,21.33
2023-01-17T12:44:23.757Z,19.83
2023-01-17T12:47:00.213Z,16.92
2023-01-17T12:49:53.084Z,17.55
2023-01-17T12:52:37.020Z,16.30
2023-01-17T12:55:11.961Z,15.95
2023-01-17T12:57:47.139Z,19.27
2023-01-17T13:00:21.456Z,18.70
2023-01-17T13:03:06.300Z,13.65
2023-01-17T13:05:41.110Z,16.33
2023-01-17T13:08:29.900Z,19.80
2023-01-17T13:11:11.630Z,19.35
2023-01-17T13:13:43.893Z,20.40
2023-01-17T13:16:25.384Z,15.93
2023-01-17T13:18:53.657Z,17.95
2023-01-17T13:21:36.478Z,16.15
2023-01-17T13:24:24.216Z,19.60
2023-01-17T13:26:51.432Z,14.25
2023-01-17T13:29:37.796Z,16.33
2023-01-17T13:32:23.572Z,18.10
2023-01-17T13:35:06.381Z,19.05
2023-01-17T13:37:33.640Z,15.82
2023-01-17T13:40:19.545Z,17.63
2023-01-17T13:43:02.605Z,16.48
2023-01-17T13:45:35.855Z,16.65
2023-01-17T13:48:12.096Z,16.48
2023-01-17T13:50:42.844Z,18.25
2023-01-17T13:53:39.735Z,18.52
2023-01-17T13:56:26.724Z,18.45
2023-01-17T13:59:05.635Z,17.52
2023-01-17T14:01:36.945Z,18.35
2023-01-17T14:04:14.822Z,20.50
2023-01-17T14:06:53.144Z,17.20
2023-01-17T14:09:23.523Z,19.27
2023-01-17T14:11:55.034Z,18.48
2023-01-17T14:14:41.314Z,19.33
2023-01-17T14:17:23.029Z,17.65
2023-01-17T14:20:01.380Z,18.23
2023-01-17T14:22:35.288Z,19.63
2023-01-17T14:25:17.767Z,17.70
2023-01-17T14:27:51.721Z,17.08
2023-01-17T14:30:28.254Z,15.38
2023-01-17T14:33:13.882Z,18.30
2023-01-17T14:35:51.697Z,19.08
2023-01-17T14:38:28.055Z,20.80
2023-01-17T14:41:08.452Z,17.10
2023-01-17T14:43:41.117Z,15.43
2023-01-17T14:46:24.719Z,20.00
2023-01-17T14:49:00.242Z,19.80
2023-01-17T14:51:28.476Z,20.33
2023-01-17T14:54:02.408Z,17.20
2023-01-17T14:56:32.290Z,19.15
2023-01-17T14:59:21.677Z,19.67
2023-01-17T15:02:08.001Z,17.55
2023-01-17T15:04:40.087Z,20.30
2023-01-17T15:07:15.163Z,18.85
2023-01-17T15:09:45.064Z,19.65
2023-01-17T15:12:19.735Z,17.38
2023-01-17T15:14:49.891Z,17.08
2023-01-17T15:17:24.573Z,16.30
2023-01-17T15:19:57.574Z,16.60
2023-01-17T15:22:31.841Z,19.08
2023-01-17T15:25:00.489Z,20.55
2023-01-17T15:27:29.112Z,18.75
2023-01-17T15:30:10.283Z,18.25
2023-01-17T15:32:38.859Z,19.15
2023-01-17T15:35:08.129Z,20.35
2023-01-17T15:37:42.977Z,16.80
2023-01-17T15:40:20.715Z,20.63
2023-01-17T15:42:54.836Z,15.95
2023-01-17T15:45:31.442Z,18.70
2023-01-17T15:48:18.667Z,19.05
2023-01-17T15:50:45.863Z,17.52
2023-01-17T15:53:32.281Z,17.63
2023-01-17T15:56:00.329Z,19.55
2023-01-17T15:58:30.698Z,17.13
2023-01-17T16:00:58.211Z,18.38
2023-01-17T16:03:31.069Z,20.17
2023-01-17T16:06:01.116Z,19.52
2023-01-17T16:08:32.933Z,19.48
2023-01-17T16:11:03.676Z,20.05
2023-01-17T16:13:38.793Z,21.30
2023-01-17T16:16:26.997Z,21.03
2023-01-17T16:19:02.455Z,18.65
2023-01-17T16:21:31.557Z,20.38
2023-01-17T16:24:00.203Z,22.42
2023-01-17T16:26:29.413Z,19.33
2023-01-17T16:28:57.584Z,20.48
2023-01-17T16:31:26.364Z,19.80
2023-01-17T16:33:56.701Z,18.60
2023-01-17T16:36:35.109Z,19.85
2023-01-17T16:39:02.630Z,19.00
2023-01-17T16:41:30.201Z,20.63
2023-01-17T16:44:05.548Z,22.80
2023-01-17T16:46:33.054Z,19.80
2023-01-17T16:49:01.226Z,21.92
2023-01-17T16:51:28.854Z,21.60
2023-01-17T16:53:56.932Z,18.88
2023-01-17T16:56:24.635Z,20.50
2023-01-17T16:58:53.367Z,21.30
2023-01-17T17:01:22.850Z,23.10
2023-01-17T17:03:50.675Z,23.10
2023-01-17T17:06:21.524Z,20.95
2023-01-17T17:08:52.433Z,19.77
2023-01-17T17:11:27.486Z,22.83
2023-01-17T17:13:57.447Z,20.92
2023-01-17T17:16:30.039Z,20.52
2023-01-17T17:19:02.729Z,25.48
2023-01-17T17:21:31.174Z,22.77
2023-01-17T17:24:00.369Z,22.55
2023-01-17T17:26:31.271Z,20.83
2023-01-17T17:28:58.698Z,24.42
2023-01-17T17:31:26.948Z,20.52
2023-01-17T17:33:59.198Z,19.67
2023-01-17T17:36:26.858Z,19.45
2023-01-17T17:38:58.509Z,19.98
2023-01-17T17:41:28.624Z,20.50
2023-01-17T17:43:56.626Z,20.60
2023-01-17T17:46:25.845Z,22.45
2023-01-17T17:48:54.301Z,17.92
2023-01-17T17:51:30.536Z,20.05
2023-01-17T17:54:02.333Z,20.63
2023-01-17T17:56:31.326Z,20.58
2023-01-17T17:59:00.114Z,22.52
2023-01-17T18:01:27.937Z,19.55
2023-01-17T18:03:57.523Z,21.33
2023-01-17T18:06:25.149Z,22.70
2023-01-17T18:08:52.774Z,18.35
2023-01-17T18:11:23.829Z,20.70
2023-01-17T18:13:53.106Z,20.58
2023-01-17T18:16:25.910Z,19.20
2023-01-17T18:18:55.513Z,21.35
2023-01-17T18:21:33.234Z,20.73
2023-01-17T18:24:03.000Z,18.25
2023-01-17T18:26:33.463Z,17.33
2023-01-17T18:29:01.746Z,20.27
2023-01-17T18:31:31.120Z,23.83
2023-01-17T18:34:00.699Z,22.27
2023-01-17T18:36:31.091Z,19.60
2023-01-17T18:38:58.761Z,18.33
2023-01-17T18:41:29.230Z,22.77
2023-01-17T18:43:57.142Z,24.88
2023-01-17T18:46:27.491Z,18.05
2023-01-17T18:48:59.151Z,21.85
2023-01-17T18:51:29.582Z,21.15
2023-01-17T18:53:58.110Z,23.80
2023-01-17T18:56:26.606Z,20.25
2023-01-17T18:58:53.800Z,24.65
2023-01-17T19:01:23.876Z,20.10
2023-01-17T19:03:53.687Z,20.30
2023-01-17T19:06:24.971Z,19.85
2023-01-17T19:08:52.915Z,21.88
2023-01-17T19:11:22.274Z,18.58
2023-01-17T19:13:51.131Z,19.17
2023-01-17T19:16:25.772Z,19.20
2023-01-17T19:18:54.667Z,18.60
2023-01-17T19:21:25.466Z,20.35
2023-01-17T19:23:54.451Z,18.00
2023-01-17T19:26:23.600Z,19.38
2023-01-17T19:28:51.254Z,18.52
2023-01-17T19:31:25.006Z,20.27
2023-01-17T19:33:54.803Z,20.02
2023-01-17T19:36:25.118Z,19.17
2023-01-17T19:39:04.116Z,20.15
2023-01-17T19:41:41.309Z,20.45
2023-01-17T19:44:10.720Z,22.60
2023-01-17T19:46:39.758Z,23.50
2023-01-17T19:49:08.571Z,22.17
2023-01-17T19:51:36.269Z,23.08
2023-01-17T19:54:05.242Z,20.20
2023-01-17T19:56:32.753Z,20.30
2023-01-17T19:59:03.153Z,20.48
2023-01-17T20:01:33.292Z,21.55
2023-01-17T20:04:02.490Z,21.85
2023-01-17T20:06:34.997Z,19.08
2023-01-17T20:09:05.906Z,20.23
2023-01-17T20:11:33.282Z,18.75
2023-01-17T20:14:00.606Z,21.42
2023-01-17T20:16:31.183Z,21.95
2023-01-17T20:18:59.534Z,24.23
2023-01-17T20:21:28.317Z,18.23
2023-01-17T20:23:57.478Z,22.63
2023-01-17T20:26:36.519Z,20.25
2023-01-17T20:29:21.831Z,18.80
2023-01-17T20:34:20.964Z,19.58
2023-01-17T20:36:49.229Z,19.48
2023-01-17T20:39:16.665Z,18.48
2023-01-17T20:41:52.124Z,20.33
2023-01-17T20:44:19.737Z,20.83
2023-01-17T20:46:50.407Z,20.73
2023-01-17T20:49:19.714Z,17.90
2023-01-17T20:51:48.208Z,19.35
2023-01-17T20:54:21.174Z,18.27
2023-01-17T20:56:48.421Z,19.10
2023-01-17T20:59:24.456Z,20.45
2023-01-17T21:01:52.228Z,18.58
2023-01-17T21:04:26.113Z,19.70
2023-01-17T21:06:53.728Z,19.10
2023-01-17T21:09:24.377Z,18.77
2023-01-17T21:11:51.948Z,22.05
2023-01-17T21:14:22.085Z,25.15
2023-01-17T21:16:50.700Z,19.15
2023-01-17T21:19:17.970Z,19.63
2023-01-17T21:21:45.646Z,17.67
2023-01-17T21:24:18.677Z,19.50
2023-01-17T21:26:47.629Z,18.50
2023-01-17T21:29:16.396Z,21.77
2023-01-17T21:31:45.170Z,20.15
2023-01-17T21:34:13.917Z,23.80
2023-01-17T21:36:43.831Z,20.80
2023-01-17T21:39:16.720Z,22.08
2023-01-17T21:41:48.361Z,18.42
2023-01-17T21:44:23.069Z,18.38
2023-01-17T21:46:56.346Z,19.23
2023-01-17T21:49:24.241Z,21.13
2023-01-17T21:51:52.614Z,18.15
2023-01-17T21:54:42.828Z,23.50
2023-01-17T21:57:29.482Z,18.75
2023-01-17T21:59:58.308Z,21.90
2023-01-17T22:02:25.534Z,22.38
2023-01-17T22:05:00.762Z,22.33
2023-01-17T22:07:29.300Z,18.73
2023-01-17T22:09:57.113Z,17.90
2023-01-17T22:12:24.285Z,20.45
2023-01-17T22:14:53.033Z,20.15
2023-01-17T22:17:21.387Z,23.13
2023-01-17T22:19:49.289Z,21.40
2023-01-17T22:22:16.616Z,21.65
2023-01-17T22:24:48.205Z,20.00
2023-01-17T22:27:15.617Z,22.73
2023-01-17T22:29:42.974Z,20.17
2023-01-17T22:32:11.509Z,21.23
2023-01-17T22:34:39.014Z,18.17
2023-01-17T22:37:10.273Z,19.85
2023-01-17T22:39:38.731Z,19.25
2023-01-17T22:42:06.319Z,21.52
2023-01-17T22:44:33.596Z,19.50
2023-01-17T22:47:02.136Z,22.40
2023-01-17T22:49:29.187Z,21.52
2023-01-17T22:51:57.578Z,24.35
2023-01-17T22:54:24.935Z,21.92
2023-01-17T22:56:52.016Z,22.23
2023-01-17T22:59:19.494Z,19.67
2023-01-17T23:01:48.948Z,20.10
2023-01-17T23:04:18.963Z,21.98
2023-01-17T23:06:46.142Z,22.35
2023-01-17T23:09:15.773Z,22.00
2023-01-17T23:11:47.471Z,23.20
2023-01-17T23:14:20.226Z,23.40
2023-01-17T23:17:12.863Z,22.38
2023-01-17T23:19:49.705Z,21.42
2023-01-17T23:22:20.608Z,19.15
2023-01-17T23:24:51.102Z,27.08
2023-01-17T23:27:41.320Z,23.05
2023-01-17T23:30:16.698Z,21.63
2023-01-17T23:32:50.052Z,17.08
2023-01-17T23:35:20.281Z,18.10
2023-01-17T23:38:06.264Z,18.70
2023-01-17T23:40:34.842Z,21.65
2023-01-17T23:43:21.131Z,19.23
2023-01-17T23:45:49.183Z,24.58
2023-01-17T23:48:16.901Z,22.15
2023-01-17T23:50:46.535Z,21.90
2023-01-17T23:53:22.575Z,22.92
2023-01-17T23:55:52.482Z,24.17
2023-01-17T23:58:21.835Z,21.80
